Aurora, CO (80016)

9:06 AM MST on February 10, 2016 (GMT -0700)
Greenfield [II] | | Change Station
CLOSE
Current Station
Personal Weather Station
Location: Centennial, CO
Elevation: 5827 ft
Nearby Weather Stations

Elev 5827 ft 39.60 °N, 104.75 °W | Updated 12 minutes ago

Clear
Clear
47.5 °F
Feels Like 48 °F
N
1.7
Wind Variable Wind from ESE

Today
High -- | Low -- °F
--% Chance of Precip.
Yesterday
High -- | Low -- °F
Precip. -- in
Pressure 30.20 in
Visibility 10.0 miles
Clouds Few 16000 ft
Few 20000 ft
Windchill 48 °F
Dew Point 20 °F
Humidity 33%
Rainfall 0.00 in
Snow Depth Not available.
6:57 AM 5:29 PM
Waxing Crescent, 6% visible
METAR KAPA 101553Z 25014KT 10SM FEW160 FEW200 09/M10 A3021 RMK AO2 SLP226 ACSL DSNT SW-NW T00941100
Pressure 30.20 in
Visibility 10.0 miles
Clouds Few 16000 ft
Few 20000 ft
Windchill 48 °F
Dew Point 20 °F
Humidity 33%
Rainfall 0.00 in
Snow Depth Not available.
6:57 AM 5:29 PM
Waxing Crescent, 6% visible
METAR KAPA 101553Z 25014KT 10SM FEW160 FEW200 09/M10 A3021 RMK AO2 SLP226 ACSL DSNT SW-NW T00941100

10-Day Weather Forecast

Almanac

Astronomy

Feb. 10, 2016 Rise Set
Actual Time
Civil Twilight
Nautical Twilight
Astronomical Twilight
Moon
Length of Visible Light
Length of Day
Tomorrow will be .
, % of the Moon is Illuminated

Today's Extremes

State Highs State Lows

Community

WunderPhotos

Upload Photos

1,891,862 photos uploaded!

WunderBlog® & News

Nearby

Air Quality

  Air Quality AQ Index Pollutant
Not available.

Snow Depth

Station Depth Elevation

Earthquake Activity

City Distance Mag. Time & Date
Minimum magnitude displayed is 2.5.

Coastal Water Temperatures

Place Temperature

Stations

Nearby Weather Stations

Station Location Temp. Windchill Dew Point Humidity Wind Precip. Elev Updated Type
                   

Watches & Warnings

There are currently no watches in effect.